East Chicago, Indiana
Current Conditions -  °F | °C
As of 12:45 PM on Tuesday 21 Oct 2014 (Local Time) from KGYY Reporting Station
Overcast Overcast  
Wind Chill: 52°   Ceiling: 1400
Heat Index: 52°   Visibility: 10mi
Dew Point: 45°   Wind: 12mph
Humidity: 76%   Direction: 350°N
Pressure: 30.16"   Gusts: 23mph
Location:  41.63°N, 87.48°W
Report Text: KGYY 211745Z 35010G20KT 10SM BKN014 OVC032 11/07 A3016
Loading
Personal Weather Stations






























Interactive Weather Map
Tropical Storm Tracking
New forecast layout! Learn more

10-Day Weather Forecast

Advertisements
Track Severe Weather on mobile